sensor_id;sensor_type;location;lat;lon;timestamp;P1;durP1;ratioP1;P2;durP2;ratioP2
62151;SDS011;48139;47.474;19.034;2024-01-30T04:39:08;28.75;;;18.37;;
62151;SDS011;48139;47.474;19.034;2024-01-30T04:42:11;29.48;;;19.15;;
62151;SDS011;48139;47.474;19.034;2024-01-30T04:45:14;25.37;;;14.40;;
62151;SDS011;48139;47.474;19.034;2024-01-30T04:48:17;27.08;;;15.55;;
62151;SDS011;48139;47.474;19.034;2024-01-30T04:51:19;32.10;;;18.15;;
62151;SDS011;48139;47.474;19.034;2024-01-30T04:54:22;27.30;;;17.95;;
62151;SDS011;48139;47.474;19.034;2024-01-30T04:57:25;29.95;;;15.27;;
62151;SDS011;48139;47.474;19.034;2024-01-30T05:00:28;31.02;;;17.70;;
62151;SDS011;48139;47.474;19.034;2024-01-30T05:03:32;26.83;;;16.07;;
62151;SDS011;48139;47.474;19.034;2024-01-30T05:06:36;32.88;;;15.48;;
62151;SDS011;48139;47.474;19.034;2024-01-30T05:09:39;28.93;;;18.23;;
62151;SDS011;48139;47.474;19.034;2024-01-30T05:12:42;26.42;;;16.27;;
62151;SDS011;48139;47.474;19.034;2024-01-30T05:15:45;24.23;;;14.80;;
62151;SDS011;48139;47.474;19.034;2024-01-30T05:18:48;23.83;;;17.75;;
62151;SDS011;48139;47.474;19.034;2024-01-30T05:21:50;24.87;;;13.87;;
62151;SDS011;48139;47.474;19.034;2024-01-30T05:24:53;29.37;;;18.00;;
62151;SDS011;48139;47.474;19.034;2024-01-30T05:27:56;28.90;;;16.73;;
62151;SDS011;48139;47.474;19.034;2024-01-30T05:30:59;24.83;;;15.52;;
62151;SDS011;48139;47.474;19.034;2024-01-30T05:34:02;25.33;;;14.90;;
62151;SDS011;48139;47.474;19.034;2024-01-30T05:37:05;28.33;;;15.40;;
62151;SDS011;48139;47.474;19.034;2024-01-30T05:40:08;28.23;;;15.75;;
62151;SDS011;48139;47.474;19.034;2024-01-30T05:43:12;24.75;;;14.87;;
62151;SDS011;48139;47.474;19.034;2024-01-30T05:46:14;33.55;;;15.85;;
62151;SDS011;48139;47.474;19.034;2024-01-30T05:49:17;27.85;;;16.60;;
62151;SDS011;48139;47.474;19.034;2024-01-30T05:52:20;21.23;;;12.50;;
62151;SDS011;48139;47.474;19.034;2024-01-30T05:55:23;20.42;;;13.20;;
62151;SDS011;48139;47.474;19.034;2024-01-30T05:58:26;23.80;;;13.03;;
62151;SDS011;48139;47.474;19.034;2024-01-30T06:01:28;21.60;;;12.25;;
62151;SDS011;48139;47.474;19.034;2024-01-30T06:04:32;23.38;;;13.77;;
62151;SDS011;48139;47.474;19.034;2024-01-30T06:07:34;24.50;;;12.87;;
62151;SDS011;48139;47.474;19.034;2024-01-30T06:10:39;23.42;;;13.60;;
62151;SDS011;48139;47.474;19.034;2024-01-30T06:13:42;30.10;;;14.57;;
62151;SDS011;48139;47.474;19.034;2024-01-30T06:16:45;21.87;;;12.60;;
62151;SDS011;48139;47.474;19.034;2024-01-30T06:19:48;17.87;;;10.87;;
62151;SDS011;48139;47.474;19.034;2024-01-30T06:22:51;23.80;;;11.55;;
62151;SDS011;48139;47.474;19.034;2024-01-30T06:25:53;20.77;;;11.10;;
62151;SDS011;48139;47.474;19.034;2024-01-30T06:28:56;20.73;;;13.80;;
62151;SDS011;48139;47.474;19.034;2024-01-30T06:31:59;23.77;;;13.83;;
62151;SDS011;48139;47.474;19.034;2024-01-30T06:35:02;26.20;;;14.13;;
62151;SDS011;48139;47.474;19.034;2024-01-30T06:38:05;26.10;;;13.88;;
62151;SDS011;48139;47.474;19.034;2024-01-30T06:41:07;25.10;;;15.27;;
62151;SDS011;48139;47.474;19.034;2024-01-30T06:44:10;27.17;;;14.98;;
62151;SDS011;48139;47.474;19.034;2024-01-30T06:47:13;26.93;;;16.47;;
62151;SDS011;48139;47.474;19.034;2024-01-30T06:50:15;29.60;;;17.40;;
62151;SDS011;48139;47.474;19.034;2024-01-30T06:53:18;29.35;;;17.60;;
62151;SDS011;48139;47.474;19.034;2024-01-30T06:56:21;29.90;;;18.60;;
62151;SDS011;48139;47.474;19.034;2024-01-30T06:59:24;27.00;;;16.60;;
62151;SDS011;48139;47.474;19.034;2024-01-30T07:02:27;26.80;;;17.37;;
62151;SDS011;48139;47.474;19.034;2024-01-30T07:05:30;25.95;;;19.15;;
62151;SDS011;48139;47.474;19.034;2024-01-30T07:08:32;32.10;;;16.70;;
62151;SDS011;48139;47.474;19.034;2024-01-30T07:11:35;36.60;;;20.08;;
62151;SDS011;48139;47.474;19.034;2024-01-30T07:14:38;29.12;;;16.70;;
62151;SDS011;48139;47.474;19.034;2024-01-30T07:17:40;28.02;;;16.08;;
62151;SDS011;48139;47.474;19.034;2024-01-30T07:20:43;35.23;;;18.03;;
62151;SDS011;48139;47.474;19.034;2024-01-30T07:23:48;37.90;;;20.15;;
62151;SDS011;48139;47.474;19.034;2024-01-30T07:26:52;27.48;;;16.12;;
62151;SDS011;48139;47.474;19.034;2024-01-30T07:32:57;25.27;;;14.93;;
62151;SDS011;48139;47.474;19.034;2024-01-30T07:36:01;35.42;;;19.58;;
62151;SDS011;48139;47.474;19.034;2024-01-30T07:39:03;31.17;;;18.08;;
62151;SDS011;48139;47.474;19.034;2024-01-30T07:42:07;36.83;;;19.95;;
62151;SDS011;48139;47.474;19.034;2024-01-30T07:45:09;38.87;;;18.87;;
62151;SDS011;48139;47.474;19.034;2024-01-30T07:48:12;30.00;;;18.05;;
62151;SDS011;48139;47.474;19.034;2024-01-30T07:54:19;36.95;;;21.10;;
62151;SDS011;48139;47.474;19.034;2024-01-30T07:57:21;28.75;;;18.00;;
62151;SDS011;48139;47.474;19.034;2024-01-30T08:00:24;26.25;;;15.77;;
62151;SDS011;48139;47.474;19.034;2024-01-30T08:03:27;36.47;;;20.77;;
62151;SDS011;48139;47.474;19.034;2024-01-30T08:06:30;27.27;;;19.45;;
62151;SDS011;48139;47.474;19.034;2024-01-30T08:09:33;34.53;;;19.17;;
62151;SDS011;48139;47.474;19.034;2024-01-30T08:12:35;29.27;;;17.90;;
62151;SDS011;48139;47.474;19.034;2024-01-30T08:15:38;34.92;;;21.37;;
62151;SDS011;48139;47.474;19.034;2024-01-30T08:18:40;36.28;;;18.52;;
62151;SDS011;48139;47.474;19.034;2024-01-30T08:21:43;31.10;;;17.73;;
62151;SDS011;48139;47.474;19.034;2024-01-30T08:24:46;25.88;;;16.12;;
62151;SDS011;48139;47.474;19.034;2024-01-30T08:27:49;21.15;;;13.27;;
62151;SDS011;48139;47.474;19.034;2024-01-30T08:30:52;24.17;;;15.10;;
62151;SDS011;48139;47.474;19.034;2024-01-30T08:33:55;29.15;;;15.35;;
62151;SDS011;48139;47.474;19.034;2024-01-30T08:36:58;28.93;;;17.60;;
62151;SDS011;48139;47.474;19.034;2024-01-30T08:40:01;31.02;;;17.23;;
62151;SDS011;48139;47.474;19.034;2024-01-30T08:43:05;27.15;;;13.73;;
62151;SDS011;48139;47.474;19.034;2024-01-30T08:46:08;27.20;;;13.40;;
62151;SDS011;48139;47.474;19.034;2024-01-30T08:49:11;22.93;;;13.03;;
62151;SDS011;48139;47.474;19.034;2024-01-30T08:52:15;29.10;;;17.02;;
62151;SDS011;48139;47.474;19.034;2024-01-30T08:55:18;25.88;;;14.63;;
62151;SDS011;48139;47.474;19.034;2024-01-30T08:58:21;21.98;;;14.15;;
62151;SDS011;48139;47.474;19.034;2024-01-30T09:01:24;27.63;;;14.83;;
62151;SDS011;48139;47.474;19.034;2024-01-30T09:04:27;24.08;;;14.55;;
62151;SDS011;48139;47.474;19.034;2024-01-30T09:07:30;29.33;;;14.27;;
62151;SDS011;48139;47.474;19.034;2024-01-30T09:10:34;34.05;;;16.12;;
62151;SDS011;48139;47.474;19.034;2024-01-30T09:13:37;25.45;;;16.08;;
62151;SDS011;48139;47.474;19.034;2024-01-30T09:16:41;31.62;;;13.32;;
62151;SDS011;48139;47.474;19.034;2024-01-30T09:19:43;23.08;;;15.82;;
62151;SDS011;48139;47.474;19.034;2024-01-30T09:25:49;29.50;;;13.43;;
62151;SDS011;48139;47.474;19.034;2024-01-30T09:28:52;30.48;;;14.73;;
62151;SDS011;48139;47.474;19.034;2024-01-30T09:31:55;31.87;;;15.85;;
62151;SDS011;48139;47.474;19.034;2024-01-30T09:34:58;28.37;;;15.27;;
62151;SDS011;48139;47.474;19.034;2024-01-30T09:38:00;24.30;;;13.37;;
62151;SDS011;48139;47.474;19.034;2024-01-30T09:41:03;27.40;;;15.13;;
62151;SDS011;48139;47.474;19.034;2024-01-30T09:44:11;26.62;;;14.93;;
62151;SDS011;48139;47.474;19.034;2024-01-30T09:47:14;22.05;;;12.95;;
62151;SDS011;48139;47.474;19.034;2024-01-30T09:50:19;24.12;;;14.82;;
62151;SDS011;48139;47.474;19.034;2024-01-30T09:53:22;27.50;;;16.60;;
62151;SDS011;48139;47.474;19.034;2024-01-30T09:56:25;29.55;;;17.73;;
62151;SDS011;48139;47.474;19.034;2024-01-30T09:59:28;31.48;;;18.95;;
62151;SDS011;48139;47.474;19.034;2024-01-30T10:02:31;31.62;;;17.87;;
62151;SDS011;48139;47.474;19.034;2024-01-30T10:05:35;30.27;;;16.83;;
62151;SDS011;48139;47.474;19.034;2024-01-30T10:08:39;26.42;;;16.10;;
62151;SDS011;48139;47.474;19.034;2024-01-30T10:11:42;26.70;;;15.18;;
62151;SDS011;48139;47.474;19.034;2024-01-30T10:14:45;26.17;;;14.43;;
62151;SDS011;48139;47.474;19.034;2024-01-30T10:17:47;24.60;;;13.97;;
62151;SDS011;48139;47.474;19.034;2024-01-30T10:20:50;28.27;;;14.93;;
62151;SDS011;48139;47.474;19.034;2024-01-30T10:23:53;27.85;;;14.48;;
62151;SDS011;48139;47.474;19.034;2024-01-30T10:26:56;23.27;;;13.80;;
62151;SDS011;48139;47.474;19.034;2024-01-30T10:30:00;30.95;;;15.68;;
62151;SDS011;48139;47.474;19.034;2024-01-30T10:33:03;31.37;;;16.63;;
62151;SDS011;48139;47.474;19.034;2024-01-30T10:36:07;27.25;;;16.10;;
62151;SDS011;48139;47.474;19.034;2024-01-30T10:39:10;25.37;;;15.88;;
62151;SDS011;48139;47.474;19.034;2024-01-30T10:42:18;36.88;;;17.65;;
62151;SDS011;48139;47.474;19.034;2024-01-30T10:45:21;27.50;;;17.20;;
62151;SDS011;48139;47.474;19.034;2024-01-30T10:48:26;27.20;;;15.60;;
62151;SDS011;48139;47.474;19.034;2024-01-30T10:51:34;26.92;;;17.58;;
62151;SDS011;48139;47.474;19.034;2024-01-30T10:54:41;27.23;;;17.42;;
62151;SDS011;48139;47.474;19.034;2024-01-30T10:57:46;26.23;;;16.35;;
62151;SDS011;48139;47.474;19.034;2024-01-30T11:00:49;28.80;;;15.07;;
62151;SDS011;48139;47.474;19.034;2024-01-30T11:03:53;31.15;;;15.38;;
62151;SDS011;48139;47.474;19.034;2024-01-30T11:06:59;27.15;;;16.70;;
62151;SDS011;48139;47.474;19.034;2024-01-30T11:10:03;22.90;;;13.77;;
62151;SDS011;48139;47.474;19.034;2024-01-30T11:13:12;27.85;;;12.18;;
62151;SDS011;48139;47.474;19.034;2024-01-30T11:16:15;18.80;;;12.52;;
62151;SDS011;48139;47.474;19.034;2024-01-30T11:19:25;21.90;;;13.65;;
62151;SDS011;48139;47.474;19.034;2024-01-30T11:22:30;25.10;;;12.82;;
62151;SDS011;48139;47.474;19.034;2024-01-30T11:25:33;21.30;;;13.23;;
62151;SDS011;48139;47.474;19.034;2024-01-30T11:28:37;21.77;;;13.82;;
62151;SDS011;48139;47.474;19.034;2024-01-30T11:34:53;19.87;;;11.82;;
62151;SDS011;48139;47.474;19.034;2024-01-30T11:37:57;18.10;;;10.13;;
62151;SDS011;48139;47.474;19.034;2024-01-30T11:41:00;20.25;;;11.00;;
62151;SDS011;48139;47.474;19.034;2024-01-30T11:44:05;17.60;;;11.98;;
62151;SDS011;48139;47.474;19.034;2024-01-30T11:47:07;20.95;;;11.45;;
62151;SDS011;48139;47.474;19.034;2024-01-30T11:50:12;21.02;;;10.50;;
62151;SDS011;48139;47.474;19.034;2024-01-30T11:53:16;18.52;;;11.10;;
62151;SDS011;48139;47.474;19.034;2024-01-30T11:56:19;21.10;;;11.75;;
62151;SDS011;48139;47.474;19.034;2024-01-30T11:59:21;17.42;;;10.82;;
62151;SDS011;48139;47.474;19.034;2024-01-30T12:02:24;24.87;;;11.00;;
62151;SDS011;48139;47.474;19.034;2024-01-30T12:05:27;16.67;;;8.80;;
62151;SDS011;48139;47.474;19.034;2024-01-30T12:08:30;23.38;;;11.82;;
62151;SDS011;48139;47.474;19.034;2024-01-30T12:11:33;15.07;;;8.70;;
62151;SDS011;48139;47.474;19.034;2024-01-30T12:14:46;20.53;;;7.77;;
62151;SDS011;48139;47.474;19.034;2024-01-30T12:17:49;19.20;;;9.35;;
62151;SDS011;48139;47.474;19.034;2024-01-30T12:21:01;15.00;;;8.13;;
62151;SDS011;48139;47.474;19.034;2024-01-30T12:24:04;24.33;;;9.75;;
62151;SDS011;48139;47.474;19.034;2024-01-30T12:27:09;19.33;;;7.97;;
62151;SDS011;48139;47.474;19.034;2024-01-30T12:30:12;12.75;;;8.23;;
62151;SDS011;48139;47.474;19.034;2024-01-30T12:33:17;16.33;;;8.23;;
62151;SDS011;48139;47.474;19.034;2024-01-30T12:36:23;14.60;;;7.68;;
62151;SDS011;48139;47.474;19.034;2024-01-30T12:39:28;17.58;;;9.00;;
62151;SDS011;48139;47.474;19.034;2024-01-30T12:42:31;18.08;;;7.28;;
62151;SDS011;48139;47.474;19.034;2024-01-30T12:45:35;13.20;;;7.25;;
62151;SDS011;48139;47.474;19.034;2024-01-30T12:48:38;19.00;;;7.20;;
62151;SDS011;48139;47.474;19.034;2024-01-30T12:51:41;14.40;;;6.97;;
62151;SDS011;48139;47.474;19.034;2024-01-30T12:54:44;12.63;;;6.57;;
62151;SDS011;48139;47.474;19.034;2024-01-30T12:57:47;15.02;;;5.75;;
62151;SDS011;48139;47.474;19.034;2024-01-30T13:00:50;11.68;;;6.47;;
62151;SDS011;48139;47.474;19.034;2024-01-30T13:03:53;12.77;;;6.27;;
62151;SDS011;48139;47.474;19.034;2024-01-30T13:06:56;11.68;;;6.25;;
62151;SDS011;48139;47.474;19.034;2024-01-30T13:10:00;18.90;;;7.03;;
62151;SDS011;48139;47.474;19.034;2024-01-30T13:13:06;16.90;;;7.70;;
62151;SDS011;48139;47.474;19.034;2024-01-30T13:16:18;10.60;;;5.28;;
62151;SDS011;48139;47.474;19.034;2024-01-30T13:19:21;12.77;;;7.07;;
62151;SDS011;48139;47.474;19.034;2024-01-30T13:22:24;14.63;;;6.32;;
62151;SDS011;48139;47.474;19.034;2024-01-30T13:25:27;12.93;;;6.15;;
62151;SDS011;48139;47.474;19.034;2024-01-30T13:28:30;10.95;;;5.75;;
62151;SDS011;48139;47.474;19.034;2024-01-30T13:31:33;12.57;;;6.22;;
62151;SDS011;48139;47.474;19.034;2024-01-30T13:34:37;13.77;;;7.10;;
62151;SDS011;48139;47.474;19.034;2024-01-30T13:37:40;11.80;;;6.85;;
62151;SDS011;48139;47.474;19.034;2024-01-30T13:40:44;14.13;;;6.40;;
62151;SDS011;48139;47.474;19.034;2024-01-30T13:43:48;14.23;;;7.90;;
62151;SDS011;48139;47.474;19.034;2024-01-30T13:46:51;12.98;;;6.82;;
62151;SDS011;48139;47.474;19.034;2024-01-30T13:49:54;13.27;;;7.37;;
62151;SDS011;48139;47.474;19.034;2024-01-30T13:52:57;15.53;;;7.63;;
62151;SDS011;48139;47.474;19.034;2024-01-30T13:56:00;13.65;;;7.43;;
62151;SDS011;48139;47.474;19.034;2024-01-30T13:59:03;11.55;;;5.85;;
62151;SDS011;48139;47.474;19.034;2024-01-30T14:02:08;18.02;;;7.60;;
62151;SDS011;48139;47.474;19.034;2024-01-30T14:05:12;14.15;;;6.93;;
62151;SDS011;48139;47.474;19.034;2024-01-30T14:08:17;17.50;;;6.95;;
62151;SDS011;48139;47.474;19.034;2024-01-30T14:11:20;14.27;;;6.60;;
62151;SDS011;48139;47.474;19.034;2024-01-30T14:14:23;16.10;;;6.78;;
62151;SDS011;48139;47.474;19.034;2024-01-30T14:17:26;12.27;;;7.35;;
62151;SDS011;48139;47.474;19.034;2024-01-30T14:20:28;12.48;;;6.60;;
62151;SDS011;48139;47.474;19.034;2024-01-30T14:23:33;12.40;;;6.62;;
62151;SDS011;48139;47.474;19.034;2024-01-30T14:26:36;12.60;;;7.10;;
62151;SDS011;48139;47.474;19.034;2024-01-30T14:29:39;14.45;;;8.85;;
62151;SDS011;48139;47.474;19.034;2024-01-30T14:32:43;12.02;;;7.85;;
62151;SDS011;48139;47.474;19.034;2024-01-30T14:35:47;14.00;;;5.60;;
62151;SDS011;48139;47.474;19.034;2024-01-30T14:38:50;11.90;;;6.15;;
62151;SDS011;48139;47.474;19.034;2024-01-30T14:41:54;12.18;;;6.45;;
62151;SDS011;48139;47.474;19.034;2024-01-30T14:44:56;11.70;;;6.07;;
62151;SDS011;48139;47.474;19.034;2024-01-30T14:47:59;15.50;;;7.43;;
62151;SDS011;48139;47.474;19.034;2024-01-30T14:51:02;11.73;;;6.47;;
62151;SDS011;48139;47.474;19.034;2024-01-30T14:54:05;17.05;;;7.78;;
62151;SDS011;48139;47.474;19.034;2024-01-30T14:57:08;14.30;;;7.75;;
62151;SDS011;48139;47.474;19.034;2024-01-30T15:06:18;17.10;;;9.65;;
62151;SDS011;48139;47.474;19.034;2024-01-30T15:09:21;18.20;;;7.78;;
62151;SDS011;48139;47.474;19.034;2024-01-30T15:12:27;15.35;;;8.13;;
62151;SDS011;48139;47.474;19.034;2024-01-30T15:15:29;12.82;;;8.10;;
62151;SDS011;48139;47.474;19.034;2024-01-30T15:18:33;17.60;;;9.55;;
62151;SDS011;48139;47.474;19.034;2024-01-30T15:21:36;20.77;;;10.93;;
62151;SDS011;48139;47.474;19.034;2024-01-30T15:24:38;16.92;;;9.27;;
62151;SDS011;48139;47.474;19.034;2024-01-30T15:27:41;14.90;;;9.07;;
62151;SDS011;48139;47.474;19.034;2024-01-30T15:30:44;15.87;;;8.90;;
62151;SDS011;48139;47.474;19.034;2024-01-30T15:33:47;13.17;;;7.73;;
62151;SDS011;48139;47.474;19.034;2024-01-30T15:36:50;18.15;;;10.30;;
62151;SDS011;48139;47.474;19.034;2024-01-30T15:39:52;18.40;;;9.43;;
62151;SDS011;48139;47.474;19.034;2024-01-30T15:42:55;18.52;;;10.80;;
62151;SDS011;48139;47.474;19.034;2024-01-30T15:46:00;17.52;;;8.38;;
62151;SDS011;48139;47.474;19.034;2024-01-30T15:49:03;18.85;;;10.90;;
62151;SDS011;48139;47.474;19.034;2024-01-30T15:52:06;20.42;;;10.50;;
62151;SDS011;48139;47.474;19.034;2024-01-30T15:55:15;16.02;;;9.45;;
62151;SDS011;48139;47.474;19.034;2024-01-30T15:58:17;16.08;;;11.00;;
62151;SDS011;48139;47.474;19.034;2024-01-30T16:01:20;14.98;;;9.75;;
62151;SDS011;48139;47.474;19.034;2024-01-30T16:04:24;18.90;;;10.77;;
62151;SDS011;48139;47.474;19.034;2024-01-30T16:07:27;18.65;;;9.45;;
62151;SDS011;48139;47.474;19.034;2024-01-30T16:10:30;15.63;;;9.05;;
62151;SDS011;48139;47.474;19.034;2024-01-30T16:13:32;18.50;;;10.23;;
62151;SDS011;48139;47.474;19.034;2024-01-30T16:16:38;16.27;;;10.25;;
62151;SDS011;48139;47.474;19.034;2024-01-30T16:19:41;17.92;;;10.75;;
62151;SDS011;48139;47.474;19.034;2024-01-30T16:22:48;15.93;;;11.52;;
62151;SDS011;48139;47.474;19.034;2024-01-30T16:25:56;18.37;;;10.25;;
62151;SDS011;48139;47.474;19.034;2024-01-30T16:29:00;28.52;;;12.60;;
62151;SDS011;48139;47.474;19.034;2024-01-30T16:32:02;21.92;;;10.88;;
62151;SDS011;48139;47.474;19.034;2024-01-30T16:35:05;20.23;;;10.68;;
62151;SDS011;48139;47.474;19.034;2024-01-30T16:38:08;23.45;;;12.77;;
62151;SDS011;48139;47.474;19.034;2024-01-30T16:41:11;27.20;;;13.00;;
62151;SDS011;48139;47.474;19.034;2024-01-30T16:44:13;21.93;;;13.13;;
62151;SDS011;48139;47.474;19.034;2024-01-30T16:47:16;28.42;;;13.48;;
62151;SDS011;48139;47.474;19.034;2024-01-30T16:50:20;26.35;;;12.48;;
62151;SDS011;48139;47.474;19.034;2024-01-30T16:53:23;19.47;;;11.47;;
62151;SDS011;48139;47.474;19.034;2024-01-30T16:56:26;21.35;;;11.90;;
